sensor_id;sensor_type;location;lat;lon;timestamp;pressure;altitude;pressure_sealevel;temperature;humidity
76611;BME280;65503;48.534;9.062;2023-02-26T00:01:21;96375.56;;;1.84;57.02
76611;BME280;65503;48.534;9.062;2023-02-26T00:03:52;96371.81;;;1.86;57.55
76611;BME280;65503;48.534;9.062;2023-02-26T00:06:20;96374.44;;;1.93;56.90
76611;BME280;65503;48.534;9.062;2023-02-26T00:08:46;96378.59;;;1.87;57.24
76611;BME280;65503;48.534;9.062;2023-02-26T00:11:13;96381.03;;;1.95;57.65
76611;BME280;65503;48.534;9.062;2023-02-26T00:13:42;96384.25;;;1.97;57.62
76611;BME280;65503;48.534;9.062;2023-02-26T00:16:28;96388.25;;;2.00;57.81
76611;BME280;65503;48.534;9.062;2023-02-26T00:18:57;96381.06;;;2.02;57.95
76611;BME280;65503;48.534;9.062;2023-02-26T00:21:25;96386.25;;;2.02;58.50
76611;BME280;65503;48.534;9.062;2023-02-26T00:23:52;96379.91;;;2.04;58.28
76611;BME280;65503;48.534;9.062;2023-02-26T00:26:19;96387.72;;;2.11;58.75
76611;BME280;65503;48.534;9.062;2023-02-26T00:28:46;96385.91;;;2.05;58.89
76611;BME280;65503;48.534;9.062;2023-02-26T00:31:17;96386.25;;;2.02;59.29
76611;BME280;65503;48.534;9.062;2023-02-26T00:33:44;96384.19;;;1.91;59.33
76611;BME280;65503;48.534;9.062;2023-02-26T00:36:27;96383.44;;;1.97;58.56
76611;BME280;65503;48.534;9.062;2023-02-26T00:39:14;96385.19;;;1.90;58.65
76611;BME280;65503;48.534;9.062;2023-02-26T00:41:44;96386.09;;;1.76;58.67
76611;BME280;65503;48.534;9.062;2023-02-26T00:44:11;96394.41;;;1.64;59.52
76611;BME280;65503;48.534;9.062;2023-02-26T00:46:50;96387.50;;;1.50;60.19
76611;BME280;65503;48.534;9.062;2023-02-26T00:49:53;96393.19;;;1.39;60.94
76611;BME280;65503;48.534;9.062;2023-02-26T00:52:51;96398.47;;;1.31;59.98
76611;BME280;65503;48.534;9.062;2023-02-26T00:55:19;96390.53;;;1.33;60.00
76611;BME280;65503;48.534;9.062;2023-02-26T00:57:45;96390.09;;;1.29;59.70
76611;BME280;65503;48.534;9.062;2023-02-26T01:00:13;96383.56;;;1.12;60.42
76611;BME280;65503;48.534;9.062;2023-02-26T01:02:39;96378.25;;;1.20;60.10
76611;BME280;65503;48.534;9.062;2023-02-26T01:05:07;96388.38;;;1.15;60.28
76611;BME280;65503;48.534;9.062;2023-02-26T01:07:46;96379.59;;;1.16;60.06
76611;BME280;65503;48.534;9.062;2023-02-26T01:10:17;96385.97;;;1.35;59.70
76611;BME280;65503;48.534;9.062;2023-02-26T01:12:44;96381.88;;;1.47;58.71
76611;BME280;65503;48.534;9.062;2023-02-26T01:15:11;96379.06;;;1.42;59.42
76611;BME280;65503;48.534;9.062;2023-02-26T01:20:23;96383.69;;;1.25;59.62
76611;BME280;65503;48.534;9.062;2023-02-26T01:23:28;96376.94;;;1.09;60.19
76611;BME280;65503;48.534;9.062;2023-02-26T01:25:59;96388.50;;;1.07;60.19
76611;BME280;65503;48.534;9.062;2023-02-26T01:28:27;96381.09;;;1.04;59.67
76611;BME280;65503;48.534;9.062;2023-02-26T01:30:57;96389.81;;;1.03;59.91
76611;BME280;65503;48.534;9.062;2023-02-26T01:33:34;96389.91;;;1.09;59.36
76611;BME280;65503;48.534;9.062;2023-02-26T01:36:11;96391.56;;;0.96;60.30
76611;BME280;65503;48.534;9.062;2023-02-26T01:38:45;96389.97;;;0.95;59.95
76611;BME280;65503;48.534;9.062;2023-02-26T01:44:29;96388.97;;;0.96;60.45
76611;BME280;65503;48.534;9.062;2023-02-26T01:47:13;96392.41;;;1.03;60.04
76611;BME280;65503;48.534;9.062;2023-02-26T01:49:41;96397.50;;;1.11;59.26
76611;BME280;65503;48.534;9.062;2023-02-26T01:55:18;96392.81;;;1.21;59.61
76611;BME280;65503;48.534;9.062;2023-02-26T01:57:46;96395.63;;;1.26;59.88
76611;BME280;65503;48.534;9.062;2023-02-26T02:00:14;96396.50;;;1.33;59.63
76611;BME280;65503;48.534;9.062;2023-02-26T02:02:41;96390.22;;;1.42;58.56
76611;BME280;65503;48.534;9.062;2023-02-26T02:05:16;96398.28;;;1.33;59.40
76611;BME280;65503;48.534;9.062;2023-02-26T02:07:46;96392.56;;;1.37;59.30
76611;BME280;65503;48.534;9.062;2023-02-26T02:10:13;96389.19;;;1.37;58.61
76611;BME280;65503;48.534;9.062;2023-02-26T02:12:58;96389.84;;;1.45;58.48
76611;BME280;65503;48.534;9.062;2023-02-26T02:15:40;96391.78;;;1.37;59.02
76611;BME280;65503;48.534;9.062;2023-02-26T02:24:10;96405.03;;;1.27;58.20
76611;BME280;65503;48.534;9.062;2023-02-26T02:37:15;96404.28;;;0.76;59.65
76611;BME280;65503;48.534;9.062;2023-02-26T02:39:48;96413.03;;;0.75;59.79
76611;BME280;65503;48.534;9.062;2023-02-26T02:42:21;96414.13;;;0.66;60.12
76611;BME280;65503;48.534;9.062;2023-02-26T02:44:56;96412.44;;;0.58;60.16
76611;BME280;65503;48.534;9.062;2023-02-26T02:47:25;96415.16;;;0.50;60.42
76611;BME280;65503;48.534;9.062;2023-02-26T02:50:06;96414.25;;;0.43;60.63
76611;BME280;65503;48.534;9.062;2023-02-26T02:52:59;96416.22;;;0.41;60.67
76611;BME280;65503;48.534;9.062;2023-02-26T02:55:30;96416.94;;;0.35;60.96
76611;BME280;65503;48.534;9.062;2023-02-26T02:58:04;96417.63;;;0.29;60.42
76611;BME280;65503;48.534;9.062;2023-02-26T03:00:36;96410.16;;;0.34;60.72
76611;BME280;65503;48.534;9.062;2023-02-26T03:05:31;96419.63;;;0.27;60.51
76611;BME280;65503;48.534;9.062;2023-02-26T03:08:09;96421.22;;;0.28;60.80
76611;BME280;65503;48.534;9.062;2023-02-26T03:10:38;96430.31;;;0.24;60.12
76611;BME280;65503;48.534;9.062;2023-02-26T03:13:04;96423.19;;;0.26;60.38
76611;BME280;65503;48.534;9.062;2023-02-26T03:16:26;96424.53;;;0.22;60.32
76611;BME280;65503;48.534;9.062;2023-02-26T03:26:52;96439.41;;;0.05;60.97
76611;BME280;65503;48.534;9.062;2023-02-26T03:29:34;96444.38;;;0.07;60.53
76611;BME280;65503;48.534;9.062;2023-02-26T03:32:12;96443.50;;;-0.01;61.00
76611;BME280;65503;48.534;9.062;2023-02-26T03:37:20;96454.28;;;-0.12;61.43
76611;BME280;65503;48.534;9.062;2023-02-26T03:39:52;96452.78;;;-0.06;60.76
76611;BME280;65503;48.534;9.062;2023-02-26T03:42:27;96455.81;;;-0.03;60.94
76611;BME280;65503;48.534;9.062;2023-02-26T03:44:57;96458.56;;;-0.04;60.46
76611;BME280;65503;48.534;9.062;2023-02-26T03:47:25;96463.28;;;-0.08;61.46
76611;BME280;65503;48.534;9.062;2023-02-26T03:49:59;96465.31;;;-0.18;61.67
76611;BME280;65503;48.534;9.062;2023-02-26T03:52:30;96459.78;;;-0.15;61.50
76611;BME280;65503;48.534;9.062;2023-02-26T03:55:05;96461.13;;;-0.19;61.91
76611;BME280;65503;48.534;9.062;2023-02-26T03:57:35;96460.47;;;-0.21;61.97
76611;BME280;65503;48.534;9.062;2023-02-26T04:00:01;96467.31;;;-0.28;61.67
76611;BME280;65503;48.534;9.062;2023-02-26T04:02:35;96470.00;;;-0.36;62.50
76611;BME280;65503;48.534;9.062;2023-02-26T04:05:09;96467.44;;;-0.44;62.54
76611;BME280;65503;48.534;9.062;2023-02-26T04:07:38;96472.16;;;-0.48;63.07
76611;BME280;65503;48.534;9.062;2023-02-26T04:10:05;96470.13;;;-0.52;63.33
76611;BME280;65503;48.534;9.062;2023-02-26T04:12:33;96476.25;;;-0.53;62.99
76611;BME280;65503;48.534;9.062;2023-02-26T04:14:59;96482.22;;;-0.53;63.36
76611;BME280;65503;48.534;9.062;2023-02-26T04:17:26;96479.16;;;-0.56;62.87
76611;BME280;65503;48.534;9.062;2023-02-26T04:19:55;96476.41;;;-0.55;62.79
76611;BME280;65503;48.534;9.062;2023-02-26T04:22:22;96480.84;;;-0.63;63.56
76611;BME280;65503;48.534;9.062;2023-02-26T04:24:48;96481.47;;;-0.61;63.26
76611;BME280;65503;48.534;9.062;2023-02-26T04:27:15;96482.81;;;-0.73;64.05
76611;BME280;65503;48.534;9.062;2023-02-26T04:29:41;96486.69;;;-0.69;64.05
76611;BME280;65503;48.534;9.062;2023-02-26T04:32:08;96489.59;;;-0.72;63.17
76611;BME280;65503;48.534;9.062;2023-02-26T04:34:34;96485.13;;;-0.78;63.66
76611;BME280;65503;48.534;9.062;2023-02-26T04:37:01;96483.19;;;-0.76;63.85
76611;BME280;65503;48.534;9.062;2023-02-26T04:39:27;96488.06;;;-0.81;63.96
76611;BME280;65503;48.534;9.062;2023-02-26T04:41:54;96492.25;;;-0.80;64.17
76611;BME280;65503;48.534;9.062;2023-02-26T04:44:20;96485.00;;;-0.85;63.79
76611;BME280;65503;48.534;9.062;2023-02-26T04:46:47;96492.94;;;-0.87;64.29
76611;BME280;65503;48.534;9.062;2023-02-26T04:49:13;96486.44;;;-0.82;64.32
76611;BME280;65503;48.534;9.062;2023-02-26T04:51:40;96501.09;;;-0.75;63.48
76611;BME280;65503;48.534;9.062;2023-02-26T04:54:07;96493.16;;;-0.73;63.63
76611;BME280;65503;48.534;9.062;2023-02-26T04:56:33;96496.41;;;-0.79;63.72
76611;BME280;65503;48.534;9.062;2023-02-26T04:59:00;96500.97;;;-0.81;63.68
76611;BME280;65503;48.534;9.062;2023-02-26T05:01:26;96506.59;;;-0.78;64.27
76611;BME280;65503;48.534;9.062;2023-02-26T05:03:53;96499.00;;;-0.79;63.67
76611;BME280;65503;48.534;9.062;2023-02-26T05:06:19;96500.28;;;-0.75;63.88
76611;BME280;65503;48.534;9.062;2023-02-26T05:08:46;96505.22;;;-0.66;63.34
76611;BME280;65503;48.534;9.062;2023-02-26T05:11:12;96509.34;;;-0.57;63.77
76611;BME280;65503;48.534;9.062;2023-02-26T05:13:39;96514.78;;;-0.44;63.60
76611;BME280;65503;48.534;9.062;2023-02-26T05:16:06;96515.56;;;-0.43;63.61
76611;BME280;65503;48.534;9.062;2023-02-26T05:18:32;96512.25;;;-0.29;62.25
76611;BME280;65503;48.534;9.062;2023-02-26T05:20:59;96516.50;;;-0.36;62.45
76611;BME280;65503;48.534;9.062;2023-02-26T05:23:26;96509.28;;;-0.40;62.62
76611;BME280;65503;48.534;9.062;2023-02-26T05:25:56;96514.88;;;-0.37;62.90
76611;BME280;65503;48.534;9.062;2023-02-26T05:28:24;96519.09;;;-0.36;63.21
76611;BME280;65503;48.534;9.062;2023-02-26T05:30:51;96527.28;;;-0.32;63.24
76611;BME280;65503;48.534;9.062;2023-02-26T05:33:18;96539.00;;;-0.22;62.69
76611;BME280;65503;48.534;9.062;2023-02-26T05:35:45;96532.81;;;-0.13;62.34
76611;BME280;65503;48.534;9.062;2023-02-26T05:38:12;96537.72;;;-0.03;61.29
76611;BME280;65503;48.534;9.062;2023-02-26T05:40:38;96538.66;;;0.04;61.41
76611;BME280;65503;48.534;9.062;2023-02-26T05:43:05;96545.19;;;0.15;61.18
76611;BME280;65503;48.534;9.062;2023-02-26T05:45:31;96541.97;;;0.13;60.96
76611;BME280;65503;48.534;9.062;2023-02-26T05:47:58;96553.59;;;0.17;60.58
76611;BME280;65503;48.534;9.062;2023-02-26T05:50:25;96546.81;;;0.16;60.60
76611;BME280;65503;48.534;9.062;2023-02-26T05:52:52;96554.34;;;0.03;60.84
76611;BME280;65503;48.534;9.062;2023-02-26T05:55:18;96553.59;;;-0.06;60.81
76611;BME280;65503;48.534;9.062;2023-02-26T05:57:45;96559.34;;;-0.19;61.19
76611;BME280;65503;48.534;9.062;2023-02-26T06:00:12;96563.94;;;-0.29;61.54
76611;BME280;65503;48.534;9.062;2023-02-26T06:02:39;96562.22;;;-0.36;62.26
76611;BME280;65503;48.534;9.062;2023-02-26T06:05:07;96566.31;;;-0.50;62.25
76611;BME280;65503;48.534;9.062;2023-02-26T06:07:33;96570.59;;;-0.57;62.98
76611;BME280;65503;48.534;9.062;2023-02-26T06:10:00;96564.47;;;-0.64;62.65
76611;BME280;65503;48.534;9.062;2023-02-26T06:12:26;96579.00;;;-0.63;63.08
76611;BME280;65503;48.534;9.062;2023-02-26T06:14:53;96577.09;;;-0.69;63.81
76611;BME280;65503;48.534;9.062;2023-02-26T06:17:19;96587.88;;;-0.66;63.35
76611;BME280;65503;48.534;9.062;2023-02-26T06:19:46;96588.28;;;-0.46;63.63
76611;BME280;65503;48.534;9.062;2023-02-26T06:22:12;96593.69;;;-0.33;62.90
76611;BME280;65503;48.534;9.062;2023-02-26T06:24:39;96600.34;;;-0.16;62.82
76611;BME280;65503;48.534;9.062;2023-02-26T06:27:05;96598.97;;;-0.04;62.24
76611;BME280;65503;48.534;9.062;2023-02-26T06:29:32;96607.38;;;-0.02;61.92
76611;BME280;65503;48.534;9.062;2023-02-26T06:31:59;96611.06;;;0.04;61.85
76611;BME280;65503;48.534;9.062;2023-02-26T06:34:26;96606.56;;;0.21;61.20
76611;BME280;65503;48.534;9.062;2023-02-26T06:36:53;96611.84;;;0.27;61.18
76611;BME280;65503;48.534;9.062;2023-02-26T06:39:19;96613.56;;;0.35;61.29
76611;BME280;65503;48.534;9.062;2023-02-26T06:41:45;96621.25;;;0.43;60.57
76611;BME280;65503;48.534;9.062;2023-02-26T06:44:12;96627.56;;;0.40;60.98
76611;BME280;65503;48.534;9.062;2023-02-26T06:46:38;96628.50;;;0.48;60.83
76611;BME280;65503;48.534;9.062;2023-02-26T06:49:05;96635.53;;;0.39;60.49
76611;BME280;65503;48.534;9.062;2023-02-26T06:51:32;96631.28;;;0.23;61.49
76611;BME280;65503;48.534;9.062;2023-02-26T06:53:58;96644.72;;;0.19;61.19
76611;BME280;65503;48.534;9.062;2023-02-26T06:56:25;96639.56;;;0.19;61.59
76611;BME280;65503;48.534;9.062;2023-02-26T06:58:52;96638.63;;;0.12;61.48
76611;BME280;65503;48.534;9.062;2023-02-26T07:01:19;96647.97;;;0.21;61.94
76611;BME280;65503;48.534;9.062;2023-02-26T07:03:45;96653.41;;;0.26;61.21
76611;BME280;65503;48.534;9.062;2023-02-26T07:06:16;96646.00;;;0.23;61.28
76611;BME280;65503;48.534;9.062;2023-02-26T07:08:53;96651.19;;;0.46;61.10
76611;BME280;65503;48.534;9.062;2023-02-26T07:11:20;96663.78;;;0.63;60.78
76611;BME280;65503;48.534;9.062;2023-02-26T07:13:47;96659.78;;;0.75;60.24
76611;BME280;65503;48.534;9.062;2023-02-26T07:16:13;96661.34;;;0.85;59.42
76611;BME280;65503;48.534;9.062;2023-02-26T07:18:40;96658.56;;;0.86;59.66
76611;BME280;65503;48.534;9.062;2023-02-26T07:21:06;96660.09;;;1.10;58.49
76611;BME280;65503;48.534;9.062;2023-02-26T07:23:33;96665.31;;;1.24;58.33
76611;BME280;65503;48.534;9.062;2023-02-26T07:25:59;96662.78;;;1.31;58.22
76611;BME280;65503;48.534;9.062;2023-02-26T07:28:26;96661.28;;;1.37;57.87
76611;BME280;65503;48.534;9.062;2023-02-26T07:30:53;96668.78;;;1.46;57.77
76611;BME280;65503;48.534;9.062;2023-02-26T07:33:21;96660.63;;;1.49;56.99
76611;BME280;65503;48.534;9.062;2023-02-26T07:35:47;96666.72;;;1.56;57.32
76611;BME280;65503;48.534;9.062;2023-02-26T07:38:14;96666.78;;;1.78;58.05
76611;BME280;65503;48.534;9.062;2023-02-26T07:40:40;96667.41;;;2.16;55.94
76611;BME280;65503;48.534;9.062;2023-02-26T07:43:07;96669.56;;;2.55;55.49
76611;BME280;65503;48.534;9.062;2023-02-26T07:45:33;96672.34;;;3.37;52.77
76611;BME280;65503;48.534;9.062;2023-02-26T07:48:00;96664.53;;;3.71;51.76
76611;BME280;65503;48.534;9.062;2023-02-26T07:50:26;96663.72;;;3.64;51.13
76611;BME280;65503;48.534;9.062;2023-02-26T07:52:53;96664.94;;;3.68;51.68
76611;BME280;65503;48.534;9.062;2023-02-26T07:55:19;96673.06;;;3.93;50.24
76611;BME280;65503;48.534;9.062;2023-02-26T07:57:46;96678.34;;;4.39;48.66
76611;BME280;65503;48.534;9.062;2023-02-26T08:00:13;96685.94;;;5.65;46.19
76611;BME280;65503;48.534;9.062;2023-02-26T08:02:40;96673.19;;;4.85;46.03
76611;BME280;65503;48.534;9.062;2023-02-26T08:05:07;96681.06;;;4.04;48.06
76611;BME280;65503;48.534;9.062;2023-02-26T08:07:33;96673.16;;;3.37;51.71
76611;BME280;65503;48.534;9.062;2023-02-26T08:10:00;96683.16;;;3.33;51.06
76611;BME280;65503;48.534;9.062;2023-02-26T08:12:27;96682.84;;;3.50;51.05
76611;BME280;65503;48.534;9.062;2023-02-26T08:14:53;96672.78;;;3.74;50.50
76611;BME280;65503;48.534;9.062;2023-02-26T08:17:20;96680.97;;;3.78;48.73
76611;BME280;65503;48.534;9.062;2023-02-26T08:19:46;96678.16;;;3.04;51.20
76611;BME280;65503;48.534;9.062;2023-02-26T08:22:12;96687.69;;;2.97;51.24
76611;BME280;65503;48.534;9.062;2023-02-26T08:24:39;96691.47;;;2.67;52.53
76611;BME280;65503;48.534;9.062;2023-02-26T08:27:06;96692.25;;;1.89;56.80
76611;BME280;65503;48.534;9.062;2023-02-26T08:29:32;96681.72;;;1.76;56.69
76611;BME280;65503;48.534;9.062;2023-02-26T08:31:58;96684.59;;;1.81;56.73
76611;BME280;65503;48.534;9.062;2023-02-26T08:34:25;96685.66;;;1.72;56.72
76611;BME280;65503;48.534;9.062;2023-02-26T08:36:52;96688.25;;;2.65;55.07
76611;BME280;65503;48.534;9.062;2023-02-26T08:39:18;96687.63;;;2.41;53.57
76611;BME280;65503;48.534;9.062;2023-02-26T08:41:45;96689.72;;;2.10;54.86
76611;BME280;65503;48.534;9.062;2023-02-26T08:44:11;96696.47;;;2.11;55.32
76611;BME280;65503;48.534;9.062;2023-02-26T08:46:38;96697.50;;;2.31;54.28
76611;BME280;65503;48.534;9.062;2023-02-26T08:49:04;96695.16;;;2.36;53.24
76611;BME280;65503;48.534;9.062;2023-02-26T08:51:31;96697.63;;;2.23;53.79
76611;BME280;65503;48.534;9.062;2023-02-26T08:53:57;96706.50;;;2.14;55.14
76611;BME280;65503;48.534;9.062;2023-02-26T08:56:24;96714.09;;;1.80;55.50
76611;BME280;65503;48.534;9.062;2023-02-26T08:58:51;96707.91;;;1.07;57.80
76611;BME280;65503;48.534;9.062;2023-02-26T09:01:17;96717.75;;;1.12;57.82
76611;BME280;65503;48.534;9.062;2023-02-26T09:03:44;96720.59;;;1.17;57.59
76611;BME280;65503;48.534;9.062;2023-02-26T09:06:10;96724.53;;;1.72;55.65
76611;BME280;65503;48.534;9.062;2023-02-26T09:08:37;96721.84;;;1.06;57.43
76611;BME280;65503;48.534;9.062;2023-02-26T09:11:03;96730.97;;;1.17;57.92
76611;BME280;65503;48.534;9.062;2023-02-26T09:13:31;96725.72;;;1.25;57.62
76611;BME280;65503;48.534;9.062;2023-02-26T09:15:57;96720.63;;;1.46;56.46
76611;BME280;65503;48.534;9.062;2023-02-26T09:18:24;96732.97;;;1.74;55.21
76611;BME280;65503;48.534;9.062;2023-02-26T09:20:50;96730.97;;;1.17;56.30
76611;BME280;65503;48.534;9.062;2023-02-26T09:23:17;96724.47;;;0.83;57.58
76611;BME280;65503;48.534;9.062;2023-02-26T09:25:44;96730.03;;;1.47;56.64
76611;BME280;65503;48.534;9.062;2023-02-26T09:28:10;96731.97;;;1.75;55.49
76611;BME280;65503;48.534;9.062;2023-02-26T09:30:37;96730.59;;;2.08;55.00
76611;BME280;65503;48.534;9.062;2023-02-26T09:33:04;96740.28;;;2.35;54.23
76611;BME280;65503;48.534;9.062;2023-02-26T09:35:30;96737.09;;;2.33;53.95
76611;BME280;65503;48.534;9.062;2023-02-26T09:37:56;96741.00;;;2.29;54.76
76611;BME280;65503;48.534;9.062;2023-02-26T09:40:42;96743.78;;;1.92;55.35
76611;BME280;65503;48.534;9.062;2023-02-26T09:43:29;96741.44;;;1.67;55.96
76611;BME280;65503;48.534;9.062;2023-02-26T09:46:19;96742.72;;;1.42;57.42
76611;BME280;65503;48.534;9.062;2023-02-26T09:48:48;96748.44;;;1.52;56.83
76611;BME280;65503;48.534;9.062;2023-02-26T09:51:20;96754.34;;;1.76;56.72
76611;BME280;65503;48.534;9.062;2023-02-26T09:53:48;96754.75;;;1.50;57.17
76611;BME280;65503;48.534;9.062;2023-02-26T09:56:19;96753.78;;;1.36;57.59
76611;BME280;65503;48.534;9.062;2023-02-26T09:58:47;96764.69;;;1.46;57.54
76611;BME280;65503;48.534;9.062;2023-02-26T10:01:34;96761.34;;;1.23;57.67
76611;BME280;65503;48.534;9.062;2023-02-26T10:04:21;96765.25;;;1.56;57.55
76611;BME280;65503;48.534;9.062;2023-02-26T10:07:07;96781.84;;;1.77;57.18
76611;BME280;65503;48.534;9.062;2023-02-26T10:09:59;96777.66;;;1.09;58.86
76611;BME280;65503;48.534;9.062;2023-02-26T10:12:30;96789.41;;;1.19;58.81
76611;BME280;65503;48.534;9.062;2023-02-26T10:20:58;96778.38;;;2.49;52.04
76611;BME280;65503;48.534;9.062;2023-02-26T10:23:30;96773.47;;;4.89;49.01
76611;BME280;65503;48.534;9.062;2023-02-26T10:28:40;96772.25;;;6.86;44.97
76611;BME280;65503;48.534;9.062;2023-02-26T10:36:39;96776.22;;;9.20;39.89
76611;BME280;65503;48.534;9.062;2023-02-26T10:42:00;96768.31;;;7.76;41.80
76611;BME280;65503;48.534;9.062;2023-02-26T10:44:33;96774.88;;;7.17;42.33
76611;BME280;65503;48.534;9.062;2023-02-26T10:50:15;96777.09;;;5.08;47.04
76611;BME280;65503;48.534;9.062;2023-02-26T10:52:44;96775.75;;;4.38;49.01
76611;BME280;65503;48.534;9.062;2023-02-26T10:55:47;96768.44;;;4.13;50.38
76611;BME280;65503;48.534;9.062;2023-02-26T10:58:20;96762.44;;;4.87;49.62
76611;BME280;65503;48.534;9.062;2023-02-26T11:00:49;96780.25;;;4.70;48.32
76611;BME280;65503;48.534;9.062;2023-02-26T11:03:22;96769.97;;;3.67;50.63
76611;BME280;65503;48.534;9.062;2023-02-26T11:05:52;96780.06;;;3.49;52.08
76611;BME280;65503;48.534;9.062;2023-02-26T11:08:39;96782.31;;;2.45;54.78
76611;BME280;65503;48.534;9.062;2023-02-26T11:11:07;96785.31;;;2.64;55.80
76611;BME280;65503;48.534;9.062;2023-02-26T11:13:37;96773.94;;;2.86;53.91
76611;BME280;65503;48.534;9.062;2023-02-26T11:16:10;96781.84;;;3.20;53.93
76611;BME280;65503;48.534;9.062;2023-02-26T11:18:57;96774.19;;;3.68;53.53
76611;BME280;65503;48.534;9.062;2023-02-26T11:21:28;96773.59;;;3.38;53.03
76611;BME280;65503;48.534;9.062;2023-02-26T11:24:27;96777.03;;;3.17;53.19
76611;BME280;65503;48.534;9.062;2023-02-26T11:26:56;96776.94;;;2.83;54.75
76611;BME280;65503;48.534;9.062;2023-02-26T11:29:24;96779.59;;;3.39;52.62
76611;BME280;65503;48.534;9.062;2023-02-26T11:31:53;96780.66;;;3.79;51.32
76611;BME280;65503;48.534;9.062;2023-02-26T11:34:22;96766.53;;;3.60;51.52
76611;BME280;65503;48.534;9.062;2023-02-26T11:36:50;96777.31;;;4.26;50.15
76611;BME280;65503;48.534;9.062;2023-02-26T11:39:22;96774.56;;;4.47;48.53
76611;BME280;65503;48.534;9.062;2023-02-26T11:41:51;96777.00;;;4.55;48.98
76611;BME280;65503;48.534;9.062;2023-02-26T11:44:24;96771.09;;;3.23;51.56
76611;BME280;65503;48.534;9.062;2023-02-26T11:46:55;96771.13;;;3.92;50.29
76611;BME280;65503;48.534;9.062;2023-02-26T11:49:25;96780.59;;;4.06;50.97
76611;BME280;65503;48.534;9.062;2023-02-26T11:52:17;96787.91;;;4.78;48.72
76611;BME280;65503;48.534;9.062;2023-02-26T11:54:45;96782.94;;;4.36;48.97
76611;BME280;65503;48.534;9.062;2023-02-26T11:57:24;96779.81;;;4.53;48.98
76611;BME280;65503;48.534;9.062;2023-02-26T11:59:52;96772.75;;;4.00;49.10
76611;BME280;65503;48.534;9.062;2023-02-26T12:02:20;96772.91;;;3.85;50.99
76611;BME280;65503;48.534;9.062;2023-02-26T12:04:52;96785.59;;;4.01;50.71
76611;BME280;65503;48.534;9.062;2023-02-26T12:07:20;96784.75;;;3.94;50.81
76611;BME280;65503;48.534;9.062;2023-02-26T12:09:47;96783.50;;;3.84;49.73
76611;BME280;65503;48.534;9.062;2023-02-26T12:12:29;96794.38;;;4.00;50.62
76611;BME280;65503;48.534;9.062;2023-02-26T12:23:25;96785.22;;;3.42;51.02
76611;BME280;65503;48.534;9.062;2023-02-26T12:31:28;96777.41;;;3.14;51.47
76611;BME280;65503;48.534;9.062;2023-02-26T12:37:17;96796.63;;;3.69;51.27
76611;BME280;65503;48.534;9.062;2023-02-26T12:40:07;96781.44;;;2.74;53.89
76611;BME280;65503;48.534;9.062;2023-02-26T12:43:01;96776.94;;;3.60;51.83
76611;BME280;65503;48.534;9.062;2023-02-26T12:45:52;96781.91;;;3.89;50.52
76611;BME280;65503;48.534;9.062;2023-02-26T12:48:41;96785.09;;;3.85;49.39
76611;BME280;65503;48.534;9.062;2023-02-26T12:56:52;96770.03;;;2.97;51.18
76611;BME280;65503;48.534;9.062;2023-02-26T13:05:29;96789.47;;;3.22;50.44
76611;BME280;65503;48.534;9.062;2023-02-26T13:08:08;96783.59;;;2.71;51.21
76611;BME280;65503;48.534;9.062;2023-02-26T13:11:00;96784.53;;;3.06;50.88
76611;BME280;65503;48.534;9.062;2023-02-26T13:16:15;96798.69;;;2.82;52.01
76611;BME280;65503;48.534;9.062;2023-02-26T13:18:54;96795.94;;;3.32;50.53
76611;BME280;65503;48.534;9.062;2023-02-26T13:21:29;96806.78;;;3.64;50.53
76611;BME280;65503;48.534;9.062;2023-02-26T13:24:02;96785.53;;;2.83;52.09
76611;BME280;65503;48.534;9.062;2023-02-26T13:26:32;96806.25;;;2.77;52.51
76611;BME280;65503;48.534;9.062;2023-02-26T13:29:03;96808.69;;;2.13;55.22
76611;BME280;65503;48.534;9.062;2023-02-26T13:31:37;96817.00;;;2.23;55.60
76611;BME280;65503;48.534;9.062;2023-02-26T13:34:33;96817.81;;;1.94;56.95
76611;BME280;65503;48.534;9.062;2023-02-26T13:37:02;96811.72;;;2.31;56.52
76611;BME280;65503;48.534;9.062;2023-02-26T13:39:54;96815.75;;;2.70;54.64
76611;BME280;65503;48.534;9.062;2023-02-26T13:42:41;96810.78;;;2.89;53.57
76611;BME280;65503;48.534;9.062;2023-02-26T13:48:33;96809.13;;;3.59;51.89
76611;BME280;65503;48.534;9.062;2023-02-26T13:51:19;96805.31;;;4.24;49.32
76611;BME280;65503;48.534;9.062;2023-02-26T13:54:01;96793.06;;;4.65;48.95
76611;BME280;65503;48.534;9.062;2023-02-26T14:06:45;96799.78;;;3.92;51.85
76611;BME280;65503;48.534;9.062;2023-02-26T14:29:58;96811.78;;;3.38;50.40
76611;BME280;65503;48.534;9.062;2023-02-26T14:32:32;96822.34;;;3.29;49.91
76611;BME280;65503;48.534;9.062;2023-02-26T14:35:30;96816.41;;;3.42;49.03
76611;BME280;65503;48.534;9.062;2023-02-26T14:38:19;96807.16;;;3.61;48.91
76611;BME280;65503;48.534;9.062;2023-02-26T14:40:56;96813.22;;;4.02;47.73
76611;BME280;65503;48.534;9.062;2023-02-26T14:43:49;96819.28;;;4.16;46.89
76611;BME280;65503;48.534;9.062;2023-02-26T14:46:17;96822.34;;;3.85;47.34
76611;BME280;65503;48.534;9.062;2023-02-26T14:48:44;96811.53;;;3.32;48.39
76611;BME280;65503;48.534;9.062;2023-02-26T14:54:13;96822.94;;;3.31;47.96
76611;BME280;65503;48.534;9.062;2023-02-26T14:57:01;96821.09;;;3.04;48.31
76611;BME280;65503;48.534;9.062;2023-02-26T15:05:16;96843.56;;;2.55;48.93
76611;BME280;65503;48.534;9.062;2023-02-26T15:08:15;96834.75;;;2.70;48.92
76611;BME280;65503;48.534;9.062;2023-02-26T15:13:56;96835.13;;;2.53;48.89
76611;BME280;65503;48.534;9.062;2023-02-26T15:19:32;96845.25;;;2.47;50.33
76611;BME280;65503;48.534;9.062;2023-02-26T15:22:21;96838.88;;;2.65;49.92
76611;BME280;65503;48.534;9.062;2023-02-26T15:24:50;96839.69;;;2.65;48.46
76611;BME280;65503;48.534;9.062;2023-02-26T15:27:18;96845.66;;;3.44;46.79
76611;BME280;65503;48.534;9.062;2023-02-26T15:29:46;96861.34;;;3.29;45.61
76611;BME280;65503;48.534;9.062;2023-02-26T15:32:29;96857.06;;;2.65;47.96
76611;BME280;65503;48.534;9.062;2023-02-26T15:35:03;96856.84;;;2.81;47.81
76611;BME280;65503;48.534;9.062;2023-02-26T15:37:30;96848.13;;;3.52;46.94
76611;BME280;65503;48.534;9.062;2023-02-26T15:39:59;96856.94;;;3.79;45.81
76611;BME280;65503;48.534;9.062;2023-02-26T15:42:32;96862.06;;;4.00;45.17
76611;BME280;65503;48.534;9.062;2023-02-26T15:45:26;96863.75;;;3.59;45.88
76611;BME280;65503;48.534;9.062;2023-02-26T15:47:55;96876.69;;;3.73;46.49
76611;BME280;65503;48.534;9.062;2023-02-26T15:50:26;96871.44;;;2.82;48.21
76611;BME280;65503;48.534;9.062;2023-02-26T15:52:59;96877.03;;;3.00;49.12